createdAt,value
2018-10-19T00:00:00.438Z,99712.88
2018-10-19T00:00:31.538Z,99709.48
2018-10-19T00:01:02.646Z,99717.94
2018-10-19T00:01:33.745Z,99712.10
2018-10-19T00:02:04.850Z,99714.00
2018-10-19T00:02:36.295Z,99715.89
2018-10-19T00:03:08.109Z,99707.62
2018-10-19T00:03:39.200Z,99710.31
2018-10-19T00:04:15.680Z,99714.69
2018-10-19T00:04:48.383Z,99714.69
2018-10-19T00:05:19.535Z,99715.48
2018-10-19T00:05:50.641Z,99714.69
2018-10-19T00:06:21.746Z,99719.94
2018-10-19T00:06:52.855Z,99719.61
2018-10-19T00:07:23.964Z,99716.00
2018-10-19T00:07:55.072Z,99714.29
2018-10-19T00:08:26.183Z,99717.45
2018-10-19T00:08:57.332Z,99717.86
2018-10-19T00:09:28.419Z,99714.76
2018-10-19T00:10:04.887Z,99722.56
2018-10-19T00:10:36.882Z,99718.11
2018-10-19T00:11:08.064Z,99711.99
2018-10-19T00:11:39.150Z,99717.97
2018-10-19T00:12:10.243Z,99716.16
2018-10-19T00:12:41.380Z,99713.59
2018-10-19T00:13:12.478Z,99716.16
2018-10-19T00:13:43.574Z,99716.98
2018-10-19T00:14:14.683Z,99716.95
2018-10-19T00:14:45.812Z,99718.67
2018-10-19T00:15:20.945Z,99714.25
2018-10-19T00:15:52.925Z,99709.84
2018-10-19T00:16:24.027Z,99711.56
2018-10-19T00:16:55.153Z,99714.19
2018-10-19T00:17:26.570Z,99715.09
2018-10-19T00:18:00.074Z,99713.02
2018-10-19T00:18:31.197Z,99714.33
2018-10-19T00:19:02.313Z,99711.23
2018-10-19T00:19:33.421Z,99708.53
2018-10-19T00:20:04.527Z,99713.34
2018-10-19T00:20:35.669Z,99708.16
2018-10-19T00:21:06.847Z,99709.48
2018-10-19T00:21:40.770Z,99712.55
2018-10-19T00:22:14.011Z,99710.80
2018-10-19T00:22:45.118Z,99712.47
2018-10-19T00:23:17.419Z,99712.36
2018-10-19T00:23:49.499Z,99711.30
2018-10-19T00:24:22.358Z,99706.05
2018-10-19T00:24:53.458Z,99709.59
2018-10-19T00:26:00.186Z,99713.09
2018-10-19T00:26:33.805Z,99710.47
2018-10-19T00:27:04.968Z,99707.95
2018-10-19T00:27:36.054Z,99704.16
2018-10-19T00:28:07.158Z,99705.91
2018-10-19T00:28:38.314Z,99705.14
2018-10-19T00:29:11.422Z,99706.96
2018-10-19T00:29:42.502Z,99705.80
2018-10-19T00:30:13.613Z,99715.09
2018-10-19T00:30:44.721Z,99709.25
2018-10-19T00:31:15.845Z,99704.83
2018-10-19T00:31:46.955Z,99707.45
2018-10-19T00:32:18.050Z,99715.44
2018-10-19T00:32:49.150Z,99713.45
2018-10-19T00:33:21.467Z,99708.78
2018-10-19T00:33:55.124Z,99711.95
2018-10-19T00:34:28.386Z,99706.38
2018-10-19T00:34:59.553Z,99708.19
2018-10-19T00:35:30.669Z,99714.88
2018-10-19T00:36:01.792Z,99707.95
2018-10-19T00:36:32.928Z,99709.41
2018-10-19T00:37:04.941Z,99706.86
2018-10-19T00:37:36.074Z,99710.79
2018-10-19T00:38:07.182Z,99714.32
2018-10-19T00:38:38.287Z,99710.45
2018-10-19T00:39:09.477Z,99706.59
2018-10-19T00:39:44.688Z,99711.91
2018-10-19T00:40:22.619Z,99710.45
2018-10-19T00:40:53.725Z,99708.70
2018-10-19T00:41:24.854Z,99711.30
2018-10-19T00:41:55.957Z,99712.94
2018-10-19T00:42:28.018Z,99712.03
2018-10-19T00:42:59.162Z,99713.28
2018-10-19T00:43:30.270Z,99711.53
2018-10-19T00:44:01.373Z,99707.59
2018-10-19T00:44:32.483Z,99710.66
2018-10-19T00:45:03.652Z,99710.95
2018-10-19T00:45:34.748Z,99710.34
2018-10-19T00:46:05.854Z,99709.00
2018-10-19T00:46:36.998Z,99711.61
2018-10-19T00:47:08.164Z,99706.81
2018-10-19T00:47:39.235Z,99704.25
2018-10-19T00:48:11.228Z,99701.63
2018-10-19T00:48:42.361Z,99706.81
2018-10-19T00:49:13.465Z,99710.75
2018-10-19T00:49:49.066Z,99704.73
2018-10-19T00:50:21.115Z,99707.35
2018-10-19T00:50:54.192Z,99707.38
2018-10-19T00:51:25.310Z,99700.45
2018-10-19T00:51:56.410Z,99703.08
2018-10-19T00:52:27.545Z,99699.14
2018-10-19T00:53:37.770Z,99699.52
2018-10-19T00:54:08.889Z,99700.45
2018-10-19T00:54:40.010Z,99698.67
2018-10-19T00:55:11.494Z,99699.66
2018-10-19T00:55:43.814Z,99700.23
2018-10-19T00:56:14.909Z,99696.40
2018-10-19T00:56:46.050Z,99694.58
2018-10-19T00:57:17.241Z,99697.27
2018-10-19T00:57:49.207Z,99699.83
2018-10-19T00:58:20.319Z,99704.27
2018-10-19T00:58:55.424Z,99696.87
2018-10-19T00:59:26.502Z,99693.41
2018-10-19T00:59:57.602Z,99701.34
2018-10-19T01:00:28.730Z,99695.36
2018-10-19T01:00:59.833Z,99697.72
2018-10-19T01:02:11.631Z,99705.72
2018-10-19T01:02:54.815Z,99703.53
2018-10-19T01:03:26.818Z,99701.38
2018-10-19T01:04:00.238Z,99700.58
2018-10-19T01:04:31.367Z,99698.46
2018-10-19T01:05:05.498Z,99697.22
2018-10-19T01:05:37.522Z,99695.97
2018-10-19T01:06:08.622Z,99696.48
2018-10-19T01:06:39.753Z,99700.41
2018-10-19T01:07:10.893Z,99690.83
2018-10-19T01:07:42.045Z,99695.41
2018-10-19T01:08:13.158Z,99695.06
2018-10-19T01:08:44.291Z,99699.47
2018-10-19T01:09:19.854Z,99698.66
2018-10-19T01:09:51.858Z,99696.11
2018-10-19T01:10:23.849Z,99697.08
2018-10-19T01:10:55.031Z,99692.41
2018-10-19T01:11:26.082Z,99699.36
2018-10-19T01:11:59.795Z,99695.94
2018-10-19T01:12:30.902Z,99695.03
2018-10-19T01:13:02.914Z,99695.03
2018-10-19T01:13:34.782Z,99693.24
2018-10-19T01:14:05.897Z,99698.48
2018-10-19T01:14:37.001Z,99691.09
2018-10-19T01:15:08.151Z,99691.94
2018-10-19T01:15:39.238Z,99693.24
2018-10-19T01:16:10.367Z,99691.50
2018-10-19T01:16:41.473Z,99695.43
2018-10-19T01:17:13.608Z,99695.30
2018-10-19T01:17:45.521Z,99693.55
2018-10-19T01:18:17.060Z,99691.84
2018-10-19T01:18:48.165Z,99692.67
2018-10-19T01:19:20.131Z,99698.39
2018-10-19T01:19:52.138Z,99697.98
2018-10-19T01:20:23.251Z,99694.89
2018-10-19T01:20:55.287Z,99694.55
2018-10-19T01:21:26.367Z,99692.81
2018-10-19T01:21:57.474Z,99697.71
2018-10-19T01:22:28.568Z,99691.66
2018-10-19T01:22:59.691Z,99696.56
2018-10-19T01:23:30.833Z,99692.70
2018-10-19T01:24:01.940Z,99696.70
2018-10-19T01:24:33.050Z,99687.22
2018-10-19T01:25:04.210Z,99694.30
2018-10-19T01:25:35.347Z,99690.47
2018-10-19T01:26:06.445Z,99693.59
2018-10-19T01:26:37.736Z,99693.25
2018-10-19T01:27:09.601Z,99691.04
2018-10-19T01:27:40.676Z,99695.50
2018-10-19T01:28:11.810Z,99692.17
2018-10-19T01:28:42.910Z,99689.55
2018-10-19T01:29:14.925Z,99693.67
2018-10-19T01:29:45.978Z,99691.48
2018-10-19T01:30:17.082Z,99692.45
2018-10-19T01:30:48.184Z,99692.05
2018-10-19T01:31:19.305Z,99694.23
2018-10-19T01:31:50.430Z,99692.52
2018-10-19T01:32:21.530Z,99696.95
2018-10-19T01:32:52.656Z,99686.59
2018-10-19T01:33:23.805Z,99691.84
2018-10-19T01:33:54.916Z,99687.50
2018-10-19T01:34:26.959Z,99692.80
2018-10-19T01:34:58.125Z,99686.66
2018-10-19T01:35:29.191Z,99694.95
2018-10-19T01:36:00.281Z,99697.23
2018-10-19T01:36:31.401Z,99695.64
2018-10-19T01:37:03.405Z,99696.61
2018-10-19T01:37:34.498Z,99687.53
2018-10-19T01:38:05.610Z,99692.36
2018-10-19T01:38:36.719Z,99693.39
2018-10-19T01:39:07.890Z,99690.00
2018-10-19T01:39:38.950Z,99690.00
2018-10-19T01:40:10.046Z,99689.63
2018-10-19T01:40:41.203Z,99691.05
2018-10-19T01:41:12.333Z,99688.09
2018-10-19T01:41:43.448Z,99690.42
2018-10-19T01:42:14.563Z,99689.33
2018-10-19T01:42:45.671Z,99688.48
2018-10-19T01:43:17.173Z,99684.62
2018-10-19T01:43:48.289Z,99686.36
2018-10-19T01:44:19.388Z,99684.68
2018-10-19T01:44:50.502Z,99682.16
2018-10-19T01:45:21.604Z,99680.91
2018-10-19T01:45:52.792Z,99685.79
2018-10-19T01:46:23.906Z,99683.20
2018-10-19T01:46:55.067Z,99678.84
2018-10-19T01:47:26.150Z,99681.87
2018-10-19T01:47:57.256Z,99682.36
2018-10-19T01:48:28.364Z,99682.36
2018-10-19T01:48:59.464Z,99678.03
2018-10-19T01:49:30.594Z,99687.10
2018-10-19T01:50:01.739Z,99678.72
2018-10-19T01:50:32.842Z,99685.58
2018-10-19T01:51:03.995Z,99688.20
2018-10-19T01:51:35.125Z,99682.16
2018-10-19T01:52:06.253Z,99683.05
2018-10-19T01:52:37.372Z,99682.27
2018-10-19T01:53:08.533Z,99679.74
2018-10-19T01:53:39.609Z,99678.03
2018-10-19T01:54:10.709Z,99677.25
2018-10-19T01:54:41.810Z,99678.56
2018-10-19T01:55:12.961Z,99679.95
2018-10-19T01:55:44.081Z,99676.44
2018-10-19T01:56:15.194Z,99675.97
2018-10-19T01:56:46.299Z,99679.95
2018-10-19T01:57:17.511Z,99676.52
2018-10-19T01:57:48.571Z,99673.06
2018-10-19T01:58:19.673Z,99676.09
2018-10-19T01:58:50.779Z,99675.69
2018-10-19T01:59:21.894Z,99676.17
2018-10-19T01:59:53.802Z,99672.31
2018-10-19T02:00:24.949Z,99673.21
2018-10-19T02:00:56.065Z,99676.23
2018-10-19T02:01:27.162Z,99676.30
2018-10-19T02:01:58.275Z,99672.43
2018-10-19T02:02:29.371Z,99675.95
2018-10-19T02:03:00.536Z,99678.63
2018-10-19T02:03:31.602Z,99678.65
2018-10-19T02:04:02.709Z,99681.27
2018-10-19T02:04:33.819Z,99674.73
2018-10-19T02:05:05.270Z,99677.31
2018-10-19T02:05:37.238Z,99681.18
2018-10-19T02:06:08.346Z,99678.56
2018-10-19T02:06:39.457Z,99681.96
2018-10-19T02:07:10.587Z,99681.06
2018-10-19T02:07:41.704Z,99673.68
2018-10-19T02:08:15.223Z,99677.55
2018-10-19T02:08:46.332Z,99680.45
2018-10-19T02:09:17.439Z,99684.75
2018-10-19T02:09:48.555Z,99679.46
2018-10-19T02:10:19.653Z,99681.55
2018-10-19T02:10:50.751Z,99680.59
2018-10-19T02:11:21.849Z,99679.25
2018-10-19T02:11:53.011Z,99680.03
2018-10-19T02:12:25.432Z,99683.05
2018-10-19T02:12:56.556Z,99683.05
2018-10-19T02:13:32.379Z,99684.48
2018-10-19T02:14:03.483Z,99684.08
2018-10-19T02:14:34.578Z,99678.44
2018-10-19T02:15:05.721Z,99681.11
2018-10-19T02:15:37.719Z,99681.17
2018-10-19T02:16:08.861Z,99680.36
2018-10-19T02:16:39.965Z,99679.05
2018-10-19T02:17:11.197Z,99678.21
2018-10-19T02:17:42.279Z,99673.06
2018-10-19T02:18:13.381Z,99678.70
2018-10-19T02:18:44.486Z,99677.05
2018-10-19T02:19:17.316Z,99678.77
2018-10-19T02:19:48.422Z,99679.11
2018-10-19T02:20:19.521Z,99675.06
2018-10-19T02:20:50.623Z,99681.95
2018-10-19T02:21:21.731Z,99678.84
2018-10-19T02:21:52.842Z,99680.91
2018-10-19T02:22:23.987Z,99676.02
2018-10-19T02:22:55.121Z,99680.75
2018-10-19T02:23:26.238Z,99678.02
2018-10-19T02:23:57.348Z,99683.25
2018-10-19T02:24:28.451Z,99681.53
2018-10-19T02:24:59.571Z,99675.11
2018-10-19T02:25:31.483Z,99674.36
2018-10-19T02:26:02.597Z,99676.63
2018-10-19T02:26:35.266Z,99674.10
2018-10-19T02:27:06.403Z,99674.10
2018-10-19T02:27:37.565Z,99676.84
2018-10-19T02:28:08.690Z,99667.95
2018-10-19T02:28:39.811Z,99673.21
2018-10-19T02:29:10.932Z,99677.66
2018-10-19T02:29:42.037Z,99680.28
2018-10-19T02:30:13.141Z,99672.92
2018-10-19T02:30:44.250Z,99676.03
2018-10-19T02:31:15.343Z,99672.11
2018-10-19T02:31:46.434Z,99671.77
2018-10-19T02:32:17.541Z,99670.86
2018-10-19T02:32:48.669Z,99676.09
2018-10-19T02:33:19.862Z,99674.35
2018-10-19T02:33:50.930Z,99673.95
2018-10-19T02:34:22.034Z,99677.40
2018-10-19T02:34:53.162Z,99675.25
2018-10-19T02:35:24.281Z,99677.81
2018-10-19T02:35:55.386Z,99674.35
2018-10-19T02:36:26.503Z,99676.56
2018-10-19T02:36:57.598Z,99679.59
2018-10-19T02:37:28.737Z,99675.25
2018-10-19T02:37:59.840Z,99675.66
2018-10-19T02:38:30.974Z,99680.36
2018-10-19T02:39:02.099Z,99678.16
2018-10-19T02:39:33.219Z,99681.67
2018-10-19T02:40:04.320Z,99677.75
2018-10-19T02:40:35.424Z,99679.47
2018-10-19T02:41:06.557Z,99676.03
2018-10-19T02:41:37.665Z,99675.25
2018-10-19T02:42:10.314Z,99680.89
2018-10-19T02:42:41.418Z,99677.87
2018-10-19T02:43:12.527Z,99682.23
2018-10-19T02:43:43.675Z,99684.00
2018-10-19T02:44:14.779Z,99682.28
2018-10-19T02:44:45.880Z,99680.63
2018-10-19T02:45:17.082Z,99684.09
2018-10-19T02:45:48.125Z,99686.70
2018-10-19T02:46:19.246Z,99685.02
2018-10-19T02:46:50.373Z,99689.84
2018-10-19T02:47:21.473Z,99689.91
2018-10-19T02:47:53.525Z,99685.05
2018-10-19T02:48:24.637Z,99688.62
2018-10-19T02:48:55.809Z,99685.11
2018-10-19T02:49:26.916Z,99688.62
2018-10-19T02:49:58.007Z,99686.00
2018-10-19T02:50:29.114Z,99687.28
2018-10-19T02:51:00.268Z,99684.20
2018-10-19T02:51:31.367Z,99688.53
2018-10-19T02:52:02.515Z,99684.96
2018-10-19T02:52:33.618Z,99689.72
2018-10-19T02:53:04.740Z,99684.09
2018-10-19T02:53:35.855Z,99690.25
2018-10-19T02:54:06.966Z,99686.35
2018-10-19T02:54:38.070Z,99686.41
2018-10-19T02:55:09.178Z,99685.59
2018-10-19T02:55:40.319Z,99686.47
2018-10-19T02:56:11.464Z,99692.55
2018-10-19T02:56:43.178Z,99686.06
2018-10-19T02:57:14.329Z,99683.86
2018-10-19T02:57:45.441Z,99683.50
2018-10-19T02:58:16.559Z,99684.00
2018-10-19T02:58:47.669Z,99678.41
2018-10-19T02:59:18.840Z,99678.06
2018-10-19T02:59:49.922Z,99682.89
2018-10-19T03:00:21.023Z,99677.77
2018-10-19T03:00:52.135Z,99681.23
2018-10-19T03:01:23.306Z,99679.92
2018-10-19T03:01:54.412Z,99684.75
2018-10-19T03:02:26.345Z,99679.92
2018-10-19T03:02:57.471Z,99685.16
2018-10-19T03:03:29.342Z,99679.02
2018-10-19T03:04:00.443Z,99686.81
2018-10-19T03:04:31.558Z,99681.09
2018-10-19T03:05:02.705Z,99688.81
2018-10-19T03:05:34.400Z,99685.22
2018-10-19T03:06:05.506Z,99686.91
2018-10-19T03:06:36.642Z,99679.47
2018-10-19T03:07:07.753Z,99680.69
2018-10-19T03:07:39.745Z,99680.57
2018-10-19T03:08:10.860Z,99681.47
2018-10-19T03:08:41.980Z,99681.47
2018-10-19T03:09:13.117Z,99685.02
2018-10-19T03:09:44.211Z,99682.42
2018-10-19T03:10:15.361Z,99679.94
2018-10-19T03:10:46.465Z,99679.52
2018-10-19T03:11:17.595Z,99680.89
2018-10-19T03:11:48.695Z,99683.94
2018-10-19T03:12:21.230Z,99680.36
2018-10-19T03:12:52.345Z,99679.47
2018-10-19T03:13:23.461Z,99682.61
2018-10-19T03:13:54.561Z,99678.69
2018-10-19T03:14:25.670Z,99678.16
2018-10-19T03:14:56.811Z,99678.16
2018-10-19T03:15:27.954Z,99679.47
2018-10-19T03:15:59.063Z,99681.67
2018-10-19T03:16:30.586Z,99678.16
2018-10-19T03:17:01.751Z,99680.75
2018-10-19T03:17:32.831Z,99683.30
2018-10-19T03:18:03.956Z,99679.38
2018-10-19T03:18:35.059Z,99680.69
2018-10-19T03:19:10.205Z,99681.94
2018-10-19T03:19:41.317Z,99651.16
2018-10-19T03:20:12.435Z,99681.53
2018-10-19T03:20:44.451Z,99682.34
2018-10-19T03:21:17.295Z,99684.00
2018-10-19T03:21:49.122Z,99680.48
2018-10-19T03:22:20.229Z,99683.10
2018-10-19T03:22:51.336Z,99682.98
2018-10-19T03:23:22.468Z,99681.67
2018-10-19T03:23:53.597Z,99681.23
2018-10-19T03:24:24.701Z,99681.61
2018-10-19T03:24:58.107Z,99680.28
2018-10-19T03:25:29.226Z,99677.66
2018-10-19T03:26:00.376Z,99674.64
2018-10-19T03:26:31.481Z,99674.17
2018-10-19T03:27:02.678Z,99677.25
2018-10-19T03:27:33.747Z,99680.22
2018-10-19T03:28:04.851Z,99676.70
2018-10-19T03:28:35.967Z,99678.01
2018-10-19T03:29:07.628Z,99675.83
2018-10-19T03:29:38.746Z,99678.03
2018-10-19T03:30:09.858Z,99678.03
2018-10-19T03:30:42.621Z,99679.75
2018-10-19T03:31:13.959Z,99679.34
2018-10-19T03:31:44.866Z,99684.09
2018-10-19T03:32:15.972Z,99676.23
2018-10-19T03:32:47.158Z,99674.92
2018-10-19T03:33:18.716Z,99678.85
2018-10-19T03:33:51.414Z,99673.27
2018-10-19T03:34:22.506Z,99675.13
2018-10-19T03:34:53.637Z,99669.12
2018-10-19T03:35:24.751Z,99674.35
2018-10-19T03:35:57.455Z,99675.25
2018-10-19T03:36:28.571Z,99671.77
2018-10-19T03:36:59.692Z,99667.41
2018-10-19T03:37:30.810Z,99670.02
2018-10-19T03:38:04.048Z,99669.61
2018-10-19T03:38:35.169Z,99670.05
2018-10-19T03:39:06.317Z,99671.82
2018-10-19T03:39:37.404Z,99671.82
2018-10-19T03:40:08.505Z,99667.90
2018-10-19T03:40:39.637Z,99669.61
2018-10-19T03:41:11.557Z,99665.22
2018-10-19T03:41:42.639Z,99668.30
2018-10-19T03:42:13.752Z,99668.30
2018-10-19T03:42:44.868Z,99671.73
2018-10-19T03:43:15.978Z,99671.67
2018-10-19T03:43:48.429Z,99672.52
2018-10-19T03:44:19.543Z,99668.94
2018-10-19T03:44:50.654Z,99672.43
2018-10-19T03:45:21.764Z,99666.27
2018-10-19T03:45:53.290Z,99669.81
2018-10-19T03:46:24.437Z,99669.81
2018-10-19T03:46:55.595Z,99668.94
2018-10-19T03:47:26.671Z,99667.69
2018-10-19T03:47:57.777Z,99669.47
2018-10-19T03:48:28.927Z,99667.28
2018-10-19T03:49:00.096Z,99671.67
2018-10-19T03:49:31.168Z,99670.80
2018-10-19T03:50:02.286Z,99676.09
2018-10-19T03:50:34.263Z,99675.59
2018-10-19T03:51:05.436Z,99670.72
2018-10-19T03:51:36.494Z,99671.55
2018-10-19T03:52:07.594Z,99673.73
2018-10-19T03:52:38.693Z,99670.72
2018-10-19T03:53:09.836Z,99671.67
2018-10-19T03:53:40.975Z,99676.91
2018-10-19T03:54:12.099Z,99678.65
2018-10-19T03:54:44.162Z,99683.04
2018-10-19T03:55:15.264Z,99677.87
2018-10-19T03:55:46.380Z,99680.48
2018-10-19T03:56:17.482Z,99675.74
2018-10-19T03:56:48.599Z,99674.93
2018-10-19T03:57:19.707Z,99681.45
2018-10-19T03:57:50.810Z,99672.29
2018-10-19T03:58:21.921Z,99681.38
2018-10-19T03:58:53.079Z,99673.95
2018-10-19T03:59:25.124Z,99685.25
2018-10-19T03:59:56.251Z,99680.51
2018-10-19T04:00:27.355Z,99676.59
2018-10-19T04:00:58.454Z,99684.41
2018-10-19T04:01:29.549Z,99685.66
2018-10-19T04:02:01.884Z,99685.59
2018-10-19T04:02:33.002Z,99682.63
2018-10-19T04:03:04.166Z,99691.79
2018-10-19T04:03:35.268Z,99690.13
2018-10-19T04:04:07.280Z,99692.28
2018-10-19T04:04:38.386Z,99688.83
2018-10-19T04:05:09.506Z,99690.07
2018-10-19T04:05:41.431Z,99686.15
2018-10-19T04:06:12.526Z,99690.13
2018-10-19T04:06:43.627Z,99685.02
2018-10-19T04:07:16.730Z,99684.61
2018-10-19T04:07:48.773Z,99686.35
2018-10-19T04:08:19.877Z,99685.52
2018-10-19T04:08:50.996Z,99686.53
2018-10-19T04:09:22.145Z,99688.81
2018-10-19T04:09:53.280Z,99687.48
2018-10-19T04:10:24.412Z,99684.47
2018-10-19T04:10:55.522Z,99685.30
2018-10-19T04:11:26.635Z,99684.89
2018-10-19T04:11:58.106Z,99682.75
2018-10-19T04:12:29.218Z,99682.28
2018-10-19T04:13:01.044Z,99685.80
2018-10-19T04:13:32.153Z,99687.92
2018-10-19T04:14:03.264Z,99687.02
2018-10-19T04:14:34.411Z,99679.58
2018-10-19T04:15:05.596Z,99681.78
2018-10-19T04:15:36.678Z,99687.52
2018-10-19T04:16:07.785Z,99682.80
2018-10-19T04:16:38.881Z,99685.42
2018-10-19T04:17:10.041Z,99689.37
2018-10-19T04:17:41.100Z,99681.98
2018-10-19T04:18:12.214Z,99683.41
2018-10-19T04:18:43.329Z,99681.23
2018-10-19T04:19:14.422Z,99690.44
2018-10-19T04:19:45.515Z,99688.72
2018-10-19T04:20:16.647Z,99690.09
2018-10-19T04:20:47.762Z,99685.70
2018-10-19T04:21:18.910Z,99691.83
2018-10-19T04:21:50.007Z,99687.06
2018-10-19T04:22:21.117Z,99684.05
2018-10-19T04:22:52.242Z,99686.23
2018-10-19T04:23:23.366Z,99684.94
2018-10-19T04:23:54.467Z,99682.38
2018-10-19T04:24:25.574Z,99689.81
2018-10-19T04:24:56.686Z,99686.30
2018-10-19T04:25:27.834Z,99681.98
2018-10-19T04:25:58.943Z,99689.80
2018-10-19T04:26:30.064Z,99686.25
2018-10-19T04:27:01.226Z,99682.80
2018-10-19T04:27:32.360Z,99685.90
2018-10-19T04:28:03.457Z,99685.11
2018-10-19T04:28:34.560Z,99685.48
2018-10-19T04:29:05.750Z,99683.28
2018-10-19T04:29:36.806Z,99689.41
2018-10-19T04:30:07.911Z,99681.56
2018-10-19T04:30:39.063Z,99686.86
2018-10-19T04:31:10.172Z,99682.98
2018-10-19T04:31:41.285Z,99684.30
2018-10-19T04:32:12.394Z,99685.19
2018-10-19T04:32:43.509Z,99688.63
2018-10-19T04:33:14.680Z,99682.50
2018-10-19T04:33:45.775Z,99680.78
2018-10-19T04:34:16.883Z,99683.45
2018-10-19T04:34:47.980Z,99683.83
2018-10-19T04:35:19.089Z,99684.35
2018-10-19T04:35:50.249Z,99686.62
2018-10-19T04:36:21.354Z,99686.99
2018-10-19T04:36:52.467Z,99688.70
2018-10-19T04:37:23.570Z,99683.89
2018-10-19T04:37:54.687Z,99682.52
2018-10-19T04:38:25.789Z,99686.02
2018-10-19T04:38:56.922Z,99683.45
2018-10-19T04:39:28.041Z,99683.45
2018-10-19T04:39:59.145Z,99682.64
2018-10-19T04:40:30.266Z,99686.09
2018-10-19T04:41:01.406Z,99680.52
2018-10-19T04:41:34.468Z,99677.55
2018-10-19T04:42:05.603Z,99683.30
2018-10-19T04:42:36.562Z,99682.91
2018-10-19T04:43:07.681Z,99684.68
2018-10-19T04:43:38.787Z,99685.98
2018-10-19T04:44:09.893Z,99686.34
2018-10-19T04:44:42.294Z,99685.50
2018-10-19T04:45:13.463Z,99684.61
2018-10-19T04:45:44.593Z,99682.77
2018-10-19T04:46:15.733Z,99687.16
2018-10-19T04:46:46.855Z,99688.90
2018-10-19T04:47:17.963Z,99689.83
2018-10-19T04:47:49.203Z,99687.22
2018-10-19T04:48:20.191Z,99688.55
2018-10-19T04:48:51.291Z,99689.02
2018-10-19T04:49:23.743Z,99685.52
2018-10-19T04:49:54.853Z,99688.55
2018-10-19T04:50:25.959Z,99688.12
2018-10-19T04:50:57.124Z,99687.22
2018-10-19T04:51:28.206Z,99685.50
2018-10-19T04:51:59.325Z,99689.06
2018-10-19T04:52:30.472Z,99688.95
2018-10-19T04:53:01.595Z,99692.33
2018-10-19T04:53:32.720Z,99693.53
2018-10-19T04:54:03.824Z,99691.32
2018-10-19T04:54:34.939Z,99692.14
2018-10-19T04:55:06.067Z,99691.19
2018-10-19T04:55:37.168Z,99686.42
2018-10-19T04:56:08.284Z,99690.28
2018-10-19T04:56:39.381Z,99692.84
2018-10-19T04:57:10.603Z,99692.02
2018-10-19T04:57:41.668Z,99690.42
2018-10-19T04:58:12.773Z,99696.14
2018-10-19T04:58:43.878Z,99687.95
2018-10-19T04:59:15.102Z,99693.16
2018-10-19T04:59:46.113Z,99693.16
2018-10-19T05:00:17.215Z,99693.16
2018-10-19T05:00:48.331Z,99695.66
2018-10-19T05:01:19.439Z,99695.59
2018-10-19T05:01:50.557Z,99697.66
2018-10-19T05:02:21.673Z,99692.84
2018-10-19T05:02:52.840Z,99698.37
2018-10-19T05:03:23.958Z,99701.39
2018-10-19T05:03:55.071Z,99697.47
2018-10-19T05:04:26.197Z,99697.03
2018-10-19T05:04:57.315Z,99697.47
2018-10-19T05:05:29.380Z,99701.31
2018-10-19T05:06:00.589Z,99695.55
2018-10-19T05:06:31.722Z,99703.80
2018-10-19T05:07:02.753Z,99697.68
2018-10-19T05:07:35.350Z,99699.80
2018-10-19T05:08:06.563Z,99695.77
2018-10-19T05:08:37.654Z,99696.52
2018-10-19T05:09:08.755Z,99697.22
2018-10-19T05:09:39.884Z,99702.31
2018-10-19T05:10:10.994Z,99697.08
2018-10-19T05:10:42.095Z,99696.96
2018-10-19T05:11:13.282Z,99699.49
2018-10-19T05:11:44.331Z,99695.45
2018-10-19T05:12:15.433Z,99700.59
2018-10-19T05:12:46.884Z,99705.30
2018-10-19T05:13:18.707Z,99698.33
2018-10-19T05:13:49.825Z,99700.95
2018-10-19T05:14:20.928Z,99698.77
2018-10-19T05:14:53.063Z,99699.78
2018-10-19T05:15:24.174Z,99700.66
2018-10-19T05:15:55.289Z,99697.98
2018-10-19T05:16:27.471Z,99707.42
2018-10-19T05:16:58.641Z,99698.19
2018-10-19T05:17:29.771Z,99699.02
2018-10-19T05:18:00.891Z,99701.58
2018-10-19T05:18:32.050Z,99701.09
2018-10-19T05:19:03.162Z,99701.38
2018-10-19T05:19:34.297Z,99698.14
2018-10-19T05:20:05.422Z,99704.51
2018-10-19T05:20:37.710Z,99708.75
2018-10-19T05:21:09.649Z,99707.73
2018-10-19T05:21:43.561Z,99705.92
2018-10-19T05:22:14.688Z,99706.61
2018-10-19T05:22:45.800Z,99708.08
2018-10-19T05:23:16.935Z,99707.48
2018-10-19T05:23:48.109Z,99713.07
2018-10-19T05:24:19.446Z,99715.22
2018-10-19T05:24:51.112Z,99708.27
2018-10-19T05:25:23.009Z,99708.67
2018-10-19T05:25:55.335Z,99714.31
2018-10-19T05:26:26.743Z,99709.58
2018-10-19T05:26:58.113Z,99716.12
2018-10-19T05:27:29.592Z,99713.50
2018-10-19T05:28:01.000Z,99712.95
2018-10-19T05:28:32.481Z,99711.08
2018-10-19T05:29:03.929Z,99714.44
2018-10-19T05:29:35.177Z,99713.34
2018-10-19T05:30:06.318Z,99716.28
2018-10-19T05:30:38.022Z,99717.46
2018-10-19T05:31:09.164Z,99711.72
2018-10-19T05:31:40.270Z,99720.33
2018-10-19T05:32:11.446Z,99710.75
2018-10-19T05:32:42.522Z,99711.50
2018-10-19T05:33:13.601Z,99710.06
2018-10-19T05:33:44.698Z,99712.67
2018-10-19T05:34:15.795Z,99718.86
2018-10-19T05:34:46.939Z,99714.45
2018-10-19T05:35:18.105Z,99720.10
2018-10-19T05:35:49.987Z,99719.13
2018-10-19T05:36:21.111Z,99716.52
2018-10-19T05:36:52.220Z,99717.25
2018-10-19T05:37:23.322Z,99721.13
2018-10-19T05:37:54.997Z,99723.34
2018-10-19T05:38:26.103Z,99721.97
2018-10-19T05:38:58.071Z,99720.66
2018-10-19T05:39:29.178Z,99720.99
2018-10-19T05:40:00.325Z,99719.11
2018-10-19T05:41:07.256Z,99721.70
2018-10-19T05:41:38.373Z,99724.70
2018-10-19T05:42:09.604Z,99722.48
2018-10-19T05:42:40.710Z,99710.98
2018-10-19T05:43:11.813Z,99721.07
2018-10-19T05:43:43.073Z,99725.68
2018-10-19T05:44:18.521Z,99729.08
2018-10-19T05:44:50.849Z,99722.42
2018-10-19T05:45:22.010Z,99726.63
2018-10-19T05:45:53.102Z,99728.68
2018-10-19T05:46:24.215Z,99730.73
2018-10-19T05:46:56.932Z,99732.28
2018-10-19T05:47:28.019Z,99737.29
2018-10-19T05:47:59.147Z,99738.83
2018-10-19T05:48:31.154Z,99733.52
2018-10-19T05:49:02.332Z,99732.55
2018-10-19T05:49:33.457Z,99736.38
2018-10-19T05:50:04.595Z,99733.28
2018-10-19T05:50:35.749Z,99730.55
2018-10-19T05:51:06.854Z,99733.44
2018-10-19T05:52:15.376Z,99736.16
2018-10-19T05:52:46.426Z,99736.42
2018-10-19T05:53:17.614Z,99736.72
2018-10-19T05:53:48.681Z,99736.98
2018-10-19T05:54:19.817Z,99737.79
2018-10-19T05:54:53.394Z,99741.98
2018-10-19T05:55:25.259Z,99743.16
2018-10-19T05:55:56.456Z,99737.40
2018-10-19T05:56:27.531Z,99746.08
2018-10-19T05:56:58.646Z,99745.09
2018-10-19T05:57:29.750Z,99742.91
2018-10-19T05:58:00.888Z,99742.80
2018-10-19T05:58:31.982Z,99743.97
2018-10-19T05:59:03.128Z,99746.89
2018-10-19T05:59:34.227Z,99744.92
2018-10-19T06:00:05.397Z,99742.55
2018-10-19T06:00:41.302Z,99748.72
2018-10-19T06:01:12.424Z,99746.31
2018-10-19T06:01:43.557Z,99742.77
2018-10-19T06:02:15.545Z,99732.56
2018-10-19T06:02:46.691Z,99746.24
2018-10-19T06:03:19.146Z,99747.44
2018-10-19T06:03:50.625Z,99745.59
2018-10-19T06:04:22.479Z,99746.78
2018-10-19T06:04:53.635Z,99740.95
2018-10-19T06:05:24.747Z,99741.72
2018-10-19T06:05:55.858Z,99742.95
2018-10-19T06:06:27.012Z,99743.43
2018-10-19T06:06:59.110Z,99739.09
2018-10-19T06:07:30.221Z,99736.80
2018-10-19T06:08:01.410Z,99738.83
2018-10-19T06:08:32.476Z,99741.78
2018-10-19T06:09:03.574Z,99742.91
2018-10-19T06:09:34.674Z,99741.01
2018-10-19T06:10:05.772Z,99740.42
2018-10-19T06:10:36.874Z,99742.46
2018-10-19T06:11:07.996Z,99742.27
2018-10-19T06:11:39.865Z,99738.61